createdAt,value
2018-06-19T00:01:53.192Z,18.23
2018-06-19T00:04:21.758Z,13.80
2018-06-19T00:06:50.293Z,14.13
2018-06-19T00:09:18.594Z,19.50
2018-06-19T00:11:47.148Z,18.27
2018-06-19T00:14:15.657Z,15.00
2018-06-19T00:16:44.222Z,14.40
2018-06-19T00:19:12.716Z,14.40
2018-06-19T00:21:42.951Z,13.03
2018-06-19T00:24:11.436Z,15.87
2018-06-19T00:26:39.702Z,18.97
2018-06-19T00:29:08.231Z,14.43
2018-06-19T00:31:36.742Z,15.30
2018-06-19T00:34:05.282Z,13.53
2018-06-19T00:36:33.827Z,15.07
2018-06-19T00:39:02.357Z,15.90
2018-06-19T00:41:30.871Z,14.83
2018-06-19T00:43:59.440Z,16.50
2018-06-19T00:46:29.202Z,15.57
2018-06-19T00:48:57.733Z,16.87
2018-06-19T00:51:26.219Z,14.67
2018-06-19T00:53:54.708Z,17.40
2018-06-19T00:56:34.767Z,17.67
2018-06-19T00:59:03.305Z,14.53
2018-06-19T01:01:31.833Z,17.37
2018-06-19T01:04:00.339Z,17.37
2018-06-19T01:06:28.922Z,19.93
2018-06-19T01:08:57.596Z,16.70
2018-06-19T01:11:26.169Z,19.37
2018-06-19T01:13:54.403Z,19.17
2018-06-19T01:16:22.984Z,18.53
2018-06-19T01:18:51.595Z,19.73
2018-06-19T01:21:20.082Z,20.87
2018-06-19T01:23:48.553Z,21.87
2018-06-19T01:26:17.040Z,18.33
2018-06-19T01:28:45.557Z,18.77
2018-06-19T01:31:14.087Z,19.60
2018-06-19T01:33:42.662Z,20.23
2018-06-19T01:36:11.160Z,18.07
2018-06-19T01:38:39.781Z,19.33
2018-06-19T01:41:08.228Z,23.93
2018-06-19T01:43:36.698Z,20.27
2018-06-19T01:46:05.284Z,18.63
2018-06-19T01:48:33.769Z,23.50
2018-06-19T01:51:02.217Z,18.87
2018-06-19T01:53:30.683Z,20.40
2018-06-19T01:55:59.172Z,19.00
2018-06-19T01:58:27.696Z,21.40
2018-06-19T02:00:56.150Z,20.57
2018-06-19T02:03:24.595Z,18.80
2018-06-19T02:05:53.063Z,22.03
2018-06-19T02:08:21.508Z,23.23
2018-06-19T02:10:49.967Z,26.60
2018-06-19T02:13:18.599Z,25.87
2018-06-19T02:15:47.085Z,23.60
2018-06-19T02:18:15.519Z,22.27
2018-06-19T02:20:44.024Z,25.77
2018-06-19T02:23:12.460Z,24.13
2018-06-19T02:25:40.914Z,22.40
2018-06-19T02:28:09.364Z,24.27
2018-06-19T02:30:37.815Z,25.23
2018-06-19T02:33:06.122Z,25.90
2018-06-19T02:35:34.613Z,25.60
2018-06-19T02:38:03.048Z,24.67
2018-06-19T02:40:31.634Z,24.00
2018-06-19T02:43:00.068Z,23.00
2018-06-19T02:45:28.522Z,24.27
2018-06-19T02:47:56.682Z,23.33
2018-06-19T02:50:25.110Z,25.80
2018-06-19T02:52:53.760Z,26.53
2018-06-19T02:55:22.232Z,22.87
2018-06-19T02:57:50.710Z,29.10
2018-06-19T03:00:19.220Z,23.43
2018-06-19T03:02:47.708Z,25.87
2018-06-19T03:05:15.870Z,23.97
2018-06-19T03:07:44.351Z,22.67
2018-06-19T03:10:12.947Z,24.97
2018-06-19T03:12:41.439Z,26.87
2018-06-19T03:15:09.903Z,23.00
2018-06-19T03:17:38.382Z,25.47
2018-06-19T03:20:06.906Z,24.93
2018-06-19T03:22:35.077Z,22.50
2018-06-19T03:25:03.560Z,24.70
2018-06-19T03:27:32.030Z,25.43
2018-06-19T03:30:00.482Z,20.17
2018-06-19T03:32:29.001Z,21.90
2018-06-19T03:34:57.504Z,21.90
2018-06-19T03:37:26.073Z,27.37
2018-06-19T03:39:54.543Z,25.30
2018-06-19T03:42:23.049Z,26.40
2018-06-19T03:44:51.533Z,21.93
2018-06-19T03:47:20.000Z,20.57
2018-06-19T03:49:48.495Z,21.87
2018-06-19T03:52:16.985Z,21.40
2018-06-19T03:54:45.507Z,23.90
2018-06-19T03:57:13.754Z,24.10
2018-06-19T03:59:42.271Z,23.27
2018-06-19T04:02:10.761Z,18.70
2018-06-19T04:04:38.956Z,20.60
2018-06-19T04:07:07.434Z,23.37
2018-06-19T04:09:35.731Z,22.50
2018-06-19T04:12:04.212Z,24.50
2018-06-19T04:14:32.742Z,18.43
2018-06-19T04:17:01.248Z,21.97
2018-06-19T04:19:29.527Z,16.93
2018-06-19T04:21:58.082Z,21.07
2018-06-19T04:24:26.606Z,21.90
2018-06-19T04:26:55.081Z,20.90
2018-06-19T04:29:23.584Z,23.83
2018-06-19T04:31:51.734Z,21.33
2018-06-19T04:34:20.243Z,26.47
2018-06-19T04:36:48.706Z,24.50
2018-06-19T04:39:17.231Z,22.70
2018-06-19T04:41:45.776Z,20.67
2018-06-19T04:44:14.761Z,23.17
2018-06-19T04:46:43.463Z,23.73
2018-06-19T04:49:11.959Z,19.67
2018-06-19T04:51:40.656Z,20.47
2018-06-19T04:54:09.855Z,23.73
2018-06-19T04:56:38.319Z,22.50
2018-06-19T04:59:06.760Z,27.73
2018-06-19T05:01:35.503Z,23.97
2018-06-19T05:04:04.189Z,21.70
2018-06-19T05:06:32.654Z,19.47
2018-06-19T05:09:01.143Z,20.80
2018-06-19T05:11:29.700Z,19.33
2018-06-19T05:13:58.173Z,23.07
2018-06-19T05:16:26.385Z,19.47
2018-06-19T05:18:55.052Z,25.50
2018-06-19T05:21:23.567Z,19.07
2018-06-19T05:23:52.028Z,19.10
2018-06-19T05:26:20.457Z,18.83
2018-06-19T05:28:48.916Z,16.40
2018-06-19T05:31:17.391Z,16.73
2018-06-19T05:33:45.864Z,17.57
2018-06-19T05:36:14.039Z,18.93
2018-06-19T05:38:42.472Z,20.47
2018-06-19T05:41:11.023Z,15.47
2018-06-19T05:43:39.496Z,18.97
2018-06-19T05:46:07.701Z,14.10
2018-06-19T05:48:36.153Z,15.03
2018-06-19T05:51:04.621Z,21.93
2018-06-19T05:53:33.123Z,16.63
2018-06-19T05:56:01.342Z,17.50
2018-06-19T05:58:29.854Z,15.20
2018-06-19T06:00:58.344Z,18.87
2018-06-19T06:03:26.816Z,21.30
2018-06-19T06:05:55.420Z,17.53
2018-06-19T06:08:23.887Z,16.90
2018-06-19T06:10:52.334Z,17.63
2018-06-19T06:13:20.811Z,17.37
2018-06-19T06:15:48.982Z,13.23
2018-06-19T06:18:17.170Z,28.83
2018-06-19T06:20:45.758Z,17.12
2018-06-19T06:23:14.257Z,16.87
2018-06-19T06:25:42.708Z,18.23
2018-06-19T06:28:11.195Z,18.53
2018-06-19T06:30:39.637Z,14.07
2018-06-19T06:33:08.294Z,15.57
2018-06-19T06:35:36.788Z,14.13
2018-06-19T06:38:05.333Z,16.57
2018-06-19T06:40:33.863Z,17.97
2018-06-19T06:43:02.311Z,15.80
2018-06-19T06:45:30.825Z,14.73
2018-06-19T06:47:59.301Z,14.53
2018-06-19T06:50:27.556Z,15.43
2018-06-19T06:52:55.996Z,12.83
2018-06-19T06:55:24.467Z,16.70
2018-06-19T06:57:52.978Z,12.07
2018-06-19T07:00:22.412Z,17.87
2018-06-19T07:02:50.886Z,18.10
2018-06-19T07:05:19.364Z,11.50
2018-06-19T07:07:48.007Z,12.50
2018-06-19T07:10:16.375Z,13.40
2018-06-19T07:12:44.914Z,14.27
2018-06-19T07:15:13.387Z,15.27
2018-06-19T07:17:41.924Z,12.30
2018-06-19T07:20:10.614Z,11.63
2018-06-19T07:22:39.028Z,15.17
2018-06-19T07:25:07.522Z,17.67
2018-06-19T07:27:35.974Z,16.23
2018-06-19T07:30:04.465Z,12.90
2018-06-19T07:32:33.014Z,15.97
2018-06-19T07:35:01.468Z,14.47
2018-06-19T07:37:29.965Z,12.23
2018-06-19T07:39:58.529Z,14.07
2018-06-19T07:42:27.126Z,12.33
2018-06-19T07:44:55.564Z,13.57
2018-06-19T07:47:24.008Z,8.67
2018-06-19T07:49:52.472Z,17.97
2018-06-19T07:52:20.649Z,9.67
2018-06-19T07:54:48.798Z,14.10
2018-06-19T07:57:17.608Z,14.37
2018-06-19T07:59:46.063Z,12.87
2018-06-19T08:02:14.569Z,13.77
2018-06-19T08:04:43.142Z,12.97
2018-06-19T08:07:11.568Z,12.93
2018-06-19T08:09:40.613Z,23.30
2018-06-19T08:12:09.165Z,10.00
2018-06-19T08:14:37.833Z,13.43
2018-06-19T08:17:06.026Z,14.37
2018-06-19T08:19:34.481Z,14.83
2018-06-19T08:22:02.926Z,12.53
2018-06-19T08:24:31.389Z,11.73
2018-06-19T08:26:59.839Z,13.73
2018-06-19T08:29:28.029Z,14.60
2018-06-19T08:31:56.173Z,14.77
2018-06-19T08:34:25.187Z,12.17
2018-06-19T08:36:53.368Z,13.27
2018-06-19T08:39:21.831Z,19.03
2018-06-19T08:41:50.332Z,15.77
2018-06-19T08:44:18.795Z,16.33
2018-06-19T08:46:47.246Z,12.83
2018-06-19T08:49:15.720Z,13.63
2018-06-19T08:51:44.181Z,20.13
2018-06-19T08:54:12.770Z,17.40
2018-06-19T08:56:41.201Z,13.97
2018-06-19T08:59:09.692Z,18.27
2018-06-19T09:01:38.140Z,13.77
2018-06-19T09:04:06.335Z,17.47
2018-06-19T09:06:34.859Z,18.23
2018-06-19T09:09:03.446Z,17.37
2018-06-19T09:11:31.985Z,17.90
2018-06-19T09:14:00.166Z,14.27
2018-06-19T09:16:28.323Z,21.97
2018-06-19T09:18:56.790Z,16.93
2018-06-19T09:21:25.276Z,10.93
2018-06-19T09:23:53.747Z,14.30
2018-06-19T09:26:22.214Z,11.63
2018-06-19T09:28:50.672Z,15.83
2018-06-19T09:31:19.199Z,12.53
2018-06-19T09:33:47.621Z,15.63
2018-06-19T09:36:16.201Z,16.47
2018-06-19T09:38:44.652Z,16.53
2018-06-19T09:41:13.163Z,12.67
2018-06-19T09:43:41.568Z,13.73
2018-06-19T09:46:10.045Z,12.27
2018-06-19T09:48:38.489Z,19.67
2018-06-19T09:51:06.981Z,11.87
2018-06-19T09:53:35.463Z,17.27
2018-06-19T09:56:03.971Z,14.43
2018-06-19T09:58:32.497Z,13.93
2018-06-19T10:01:01.244Z,18.00
2018-06-19T10:03:30.383Z,16.73
2018-06-19T10:05:58.546Z,12.13
2018-06-19T10:08:27.000Z,12.10
2018-06-19T10:10:55.703Z,13.00
2018-06-19T10:13:24.208Z,14.60
2018-06-19T10:15:52.694Z,10.00
2018-06-19T10:18:21.166Z,12.77
2018-06-19T10:20:49.604Z,12.73
2018-06-19T10:23:18.068Z,15.83
2018-06-19T10:25:46.520Z,15.60
2018-06-19T10:28:14.987Z,15.20
2018-06-19T10:30:43.496Z,13.13
2018-06-19T10:33:12.047Z,11.63
2018-06-19T10:35:40.520Z,13.90
2018-06-19T10:38:09.408Z,17.70
2018-06-19T10:40:37.933Z,14.57
2018-06-19T10:43:06.444Z,16.30
2018-06-19T10:45:34.877Z,15.17
2018-06-19T10:48:03.349Z,19.67
2018-06-19T10:50:31.792Z,11.23
2018-06-19T10:53:00.266Z,22.57
2018-06-19T10:55:28.713Z,13.93
2018-06-19T10:57:57.157Z,16.97
2018-06-19T11:00:25.632Z,14.07
2018-06-19T11:02:54.219Z,13.50
2018-06-19T11:05:22.691Z,12.27
2018-06-19T11:07:51.130Z,15.40
2018-06-19T11:10:19.738Z,11.10
2018-06-19T11:12:48.243Z,12.83
2018-06-19T11:15:16.710Z,18.50
2018-06-19T11:17:45.162Z,15.60
2018-06-19T11:20:13.321Z,16.80
2018-06-19T11:22:41.831Z,16.80
2018-06-19T11:25:10.338Z,12.40
2018-06-19T11:27:38.938Z,13.13
2018-06-19T11:30:07.380Z,13.97
2018-06-19T11:32:35.545Z,16.90
2018-06-19T11:35:04.052Z,16.60
2018-06-19T11:37:32.206Z,13.33
2018-06-19T11:40:00.722Z,18.17
2018-06-19T11:42:29.200Z,17.20
2018-06-19T11:44:57.393Z,23.53
2018-06-19T11:47:25.851Z,17.20
2018-06-19T11:49:54.292Z,19.70
2018-06-19T11:52:22.793Z,15.77
2018-06-19T11:54:51.304Z,20.27
2018-06-19T11:57:19.809Z,18.90
2018-06-19T11:59:47.974Z,19.30
2018-06-19T12:02:16.467Z,20.97
2018-06-19T12:04:44.632Z,16.97
2018-06-19T12:07:13.155Z,18.83
2018-06-19T12:09:41.685Z,21.73
2018-06-19T12:12:10.227Z,16.00
2018-06-19T12:14:38.806Z,18.50
2018-06-19T12:17:07.293Z,13.97
2018-06-19T12:19:35.783Z,13.80
2018-06-19T12:22:04.518Z,15.47
2018-06-19T12:24:33.070Z,16.70
2018-06-19T12:27:01.604Z,15.67
2018-06-19T12:29:30.073Z,14.87
2018-06-19T12:31:58.531Z,14.77
2018-06-19T12:34:27.097Z,16.33
2018-06-19T12:36:55.252Z,19.97
2018-06-19T12:39:23.805Z,18.27
2018-06-19T12:41:52.278Z,20.17
2018-06-19T12:44:20.763Z,17.47
2018-06-19T12:46:49.258Z,19.13
2018-06-19T12:49:31.019Z,17.30
2018-06-19T12:52:10.725Z,22.97
2018-06-19T12:55:50.763Z,16.90
2018-06-19T12:58:19.119Z,19.37
2018-06-19T13:00:47.703Z,18.67
2018-06-19T13:03:27.604Z,20.33
2018-06-19T13:06:07.977Z,18.40
2018-06-19T13:08:36.509Z,17.50
2018-06-19T13:11:05.485Z,16.47
2018-06-19T13:13:45.343Z,17.10
2018-06-19T13:17:24.420Z,15.83
2018-06-19T13:20:03.955Z,16.13
2018-06-19T13:22:32.402Z,16.00
2018-06-19T13:25:00.859Z,13.93
2018-06-19T13:27:29.381Z,17.70
2018-06-19T13:30:10.188Z,16.30
2018-06-19T13:32:39.227Z,19.37
2018-06-19T13:35:07.731Z,18.60
2018-06-19T13:37:36.195Z,13.10
2018-06-19T13:41:15.405Z,16.00
2018-06-19T13:43:55.667Z,12.80
2018-06-19T13:46:24.113Z,11.47
2018-06-19T13:48:52.544Z,11.90
2018-06-19T13:51:21.056Z,11.77
2018-06-19T13:53:49.516Z,11.78
2018-06-19T13:57:42.066Z,9.33
2018-06-19T14:00:13.395Z,8.60
2018-06-19T14:02:41.963Z,8.63
2018-06-19T14:05:11.159Z,6.77
2018-06-19T14:08:09.225Z,11.30
2018-06-19T14:10:48.801Z,4.23
2018-06-19T14:13:17.283Z,7.17
2018-06-19T14:15:46.962Z,5.97
2018-06-19T14:18:16.392Z,3.27
2018-06-19T14:20:44.882Z,3.20
2018-06-19T14:23:13.777Z,7.77
2018-06-19T14:25:42.263Z,3.37
2018-06-19T14:28:10.757Z,4.13
2018-06-19T14:30:39.201Z,5.20
2018-06-19T14:33:07.732Z,4.10
2018-06-19T14:35:36.171Z,6.53
2018-06-19T14:38:04.679Z,11.37
2018-06-19T14:40:33.432Z,5.13
2018-06-19T14:43:01.883Z,8.03
2018-06-19T14:45:30.331Z,8.50
2018-06-19T14:47:58.826Z,5.87
2018-06-19T14:50:27.325Z,4.40
2018-06-19T14:52:55.757Z,8.20
2018-06-19T14:55:24.224Z,8.13
2018-06-19T14:57:52.875Z,3.10
2018-06-19T15:00:21.943Z,2.53
2018-06-19T15:02:50.873Z,4.80
2018-06-19T15:05:20.080Z,2.30
2018-06-19T15:07:54.757Z,2.67
2018-06-19T15:10:24.367Z,2.00
2018-06-19T15:12:53.621Z,2.40
2018-06-19T15:15:23.099Z,3.43
2018-06-19T15:17:51.874Z,5.43
2018-06-19T15:20:21.216Z,3.33
2018-06-19T15:22:50.579Z,4.73
2018-06-19T15:25:19.051Z,2.23
2018-06-19T15:27:47.256Z,4.00
2018-06-19T15:30:15.779Z,2.43
2018-06-19T15:32:44.512Z,2.53
2018-06-19T15:35:13.975Z,2.40
2018-06-19T15:37:42.634Z,3.27
2018-06-19T15:40:12.602Z,2.30
2018-06-19T15:42:41.101Z,4.43
2018-06-19T15:45:09.693Z,2.50
2018-06-19T15:47:38.500Z,2.33
2018-06-19T15:50:08.014Z,2.93
2018-06-19T15:52:36.573Z,5.40
2018-06-19T15:55:05.296Z,1.90
2018-06-19T15:57:33.845Z,3.90
2018-06-19T16:00:03.144Z,2.37
2018-06-19T16:02:31.996Z,3.37
2018-06-19T16:05:00.979Z,4.93
2018-06-19T16:07:29.911Z,3.33
2018-06-19T16:09:59.334Z,2.20
2018-06-19T16:12:28.011Z,2.33
2018-06-19T16:14:56.702Z,4.40
2018-06-19T16:17:25.253Z,1.77
2018-06-19T16:19:53.884Z,2.00
2018-06-19T16:22:23.141Z,2.67
2018-06-19T16:24:51.721Z,4.40
2018-06-19T16:27:21.319Z,3.53
2018-06-19T16:29:50.356Z,3.70
2018-06-19T16:32:19.637Z,5.80
2018-06-19T16:34:48.081Z,6.20
2018-06-19T16:37:16.900Z,5.47
2018-06-19T16:39:46.208Z,2.50
2018-06-19T16:42:15.053Z,2.37
2018-06-19T16:44:43.919Z,3.33
2018-06-19T16:47:13.135Z,3.90
2018-06-19T16:49:41.620Z,1.90
2018-06-19T16:52:10.585Z,2.33
2018-06-19T16:54:39.559Z,3.33
2018-06-19T16:57:07.783Z,4.80
2018-06-19T16:59:36.416Z,2.70
2018-06-19T17:02:07.421Z,1.87
2018-06-19T17:04:36.826Z,3.87
2018-06-19T17:07:05.778Z,5.30
2018-06-19T17:09:34.774Z,2.37
2018-06-19T17:12:03.002Z,4.17
2018-06-19T17:14:32.478Z,5.07
2018-06-19T17:17:00.677Z,5.40
2018-06-19T17:19:29.176Z,3.97
2018-06-19T17:21:57.668Z,3.37
2018-06-19T17:24:26.218Z,3.70
2018-06-19T17:26:54.720Z,5.77
2018-06-19T17:29:23.216Z,2.10
2018-06-19T17:31:51.685Z,3.53
2018-06-19T17:34:20.123Z,2.53
2018-06-19T17:36:48.601Z,7.37
2018-06-19T17:39:17.035Z,2.97
2018-06-19T17:41:45.266Z,2.50
2018-06-19T17:44:13.798Z,3.20
2018-06-19T17:46:42.246Z,2.13
2018-06-19T17:49:10.721Z,2.70
2018-06-19T17:51:39.198Z,1.97
2018-06-19T17:54:07.636Z,3.30
2018-06-19T17:56:35.789Z,1.80
2018-06-19T17:59:04.292Z,4.63
2018-06-19T18:01:32.473Z,1.60
2018-06-19T18:04:00.617Z,4.33
2018-06-19T18:06:29.112Z,5.57
2018-06-19T18:08:57.615Z,3.13
2018-06-19T18:11:26.153Z,9.03
2018-06-19T18:13:54.609Z,4.27
2018-06-19T18:16:23.088Z,6.57
2018-06-19T18:18:51.256Z,2.43
2018-06-19T18:21:19.740Z,2.33
2018-06-19T18:23:47.966Z,2.90
2018-06-19T18:26:17.289Z,3.07
2018-06-19T18:28:45.730Z,2.27
2018-06-19T18:31:14.236Z,3.60
2018-06-19T18:33:42.722Z,7.60
2018-06-19T18:36:11.216Z,3.23
2018-06-19T18:38:39.641Z,6.17
2018-06-19T18:41:08.277Z,3.07
2018-06-19T18:43:36.738Z,3.33
2018-06-19T18:46:05.338Z,2.10
2018-06-19T18:48:33.837Z,2.30
2018-06-19T18:51:02.333Z,2.07
2018-06-19T18:53:30.773Z,2.00
2018-06-19T18:55:58.978Z,8.00
2018-06-19T18:58:27.464Z,6.23
2018-06-19T19:00:55.971Z,3.60
2018-06-19T19:03:24.457Z,8.03
2018-06-19T19:05:52.922Z,3.87
2018-06-19T19:08:23.593Z,3.90
2018-06-19T19:10:54.817Z,1.97
2018-06-19T19:13:24.432Z,3.70
2018-06-19T19:15:58.262Z,3.33
2018-06-19T19:18:31.977Z,6.20
2018-06-19T19:21:01.072Z,3.40
2018-06-19T19:23:30.057Z,7.57
2018-06-19T19:25:58.546Z,4.43
2018-06-19T19:28:32.415Z,7.40
2018-06-19T19:31:00.936Z,3.70
2018-06-19T19:33:29.440Z,2.17
2018-06-19T19:35:57.880Z,3.53
2018-06-19T19:38:31.844Z,5.53
2018-06-19T19:41:00.356Z,4.80
2018-06-19T19:43:28.891Z,3.87
2018-06-19T19:45:57.326Z,6.40
2018-06-19T19:48:31.229Z,4.77
2018-06-19T19:50:59.391Z,2.23
2018-06-19T19:53:27.834Z,2.77
2018-06-19T19:56:01.654Z,2.63
2018-06-19T19:58:35.588Z,2.27
2018-06-19T20:01:04.075Z,3.70
2018-06-19T20:03:32.514Z,2.60
2018-06-19T20:06:01.077Z,2.67
2018-06-19T20:08:29.463Z,2.10
2018-06-19T20:10:57.925Z,2.30
2018-06-19T20:13:26.431Z,6.37
2018-06-19T20:15:54.577Z,5.90
2018-06-19T20:18:23.005Z,3.63
2018-06-19T20:20:51.516Z,4.80
2018-06-19T20:23:19.983Z,2.17
2018-06-19T20:25:48.485Z,1.77
2018-06-19T20:28:16.914Z,2.73
2018-06-19T20:30:45.367Z,3.60
2018-06-19T20:33:13.999Z,2.10
2018-06-19T20:35:42.505Z,6.73
2018-06-19T20:38:10.935Z,2.20
2018-06-19T20:40:40.336Z,4.50
2018-06-19T20:43:08.824Z,1.97
2018-06-19T20:45:37.312Z,4.53
2018-06-19T20:48:05.782Z,5.00
2018-06-19T20:50:34.309Z,7.07
2018-06-19T20:53:02.792Z,2.83
2018-06-19T20:55:32.213Z,3.13
2018-06-19T20:58:00.684Z,4.03
2018-06-19T21:00:29.182Z,3.93
2018-06-19T21:02:57.917Z,2.40
2018-06-19T21:05:26.410Z,2.33
2018-06-19T21:07:54.854Z,2.27
2018-06-19T21:10:23.352Z,4.03
2018-06-19T21:12:51.837Z,1.93
2018-06-19T21:15:20.298Z,3.80
2018-06-19T21:17:48.775Z,4.10
2018-06-19T21:20:17.413Z,4.07
2018-06-19T21:22:45.888Z,4.50
2018-06-19T21:25:14.529Z,2.47
2018-06-19T21:27:43.003Z,2.67
2018-06-19T21:30:11.511Z,2.30
2018-06-19T21:32:40.004Z,3.17
2018-06-19T21:35:08.482Z,2.83
2018-06-19T21:37:36.960Z,2.30
2018-06-19T21:40:05.256Z,5.60
2018-06-19T21:42:33.497Z,3.53
2018-06-19T21:45:01.972Z,7.20
2018-06-19T21:47:30.511Z,4.40
2018-06-19T21:49:58.960Z,3.90
2018-06-19T21:52:27.460Z,5.23
2018-06-19T21:54:55.943Z,4.10
2018-06-19T21:57:24.434Z,5.50
2018-06-19T21:59:52.869Z,3.57
2018-06-19T22:02:26.758Z,5.30
2018-06-19T22:04:54.932Z,3.13
2018-06-19T22:07:23.092Z,4.60
2018-06-19T22:09:51.567Z,3.60
2018-06-19T22:12:20.030Z,11.10
2018-06-19T22:14:48.524Z,3.57
2018-06-19T22:17:17.312Z,5.40
2018-06-19T22:19:45.781Z,5.47
2018-06-19T22:22:14.231Z,3.03
2018-06-19T22:24:42.405Z,2.40
2018-06-19T22:27:10.589Z,3.43
2018-06-19T22:29:38.805Z,3.57
2018-06-19T22:32:07.394Z,2.63
2018-06-19T22:34:35.947Z,4.17
2018-06-19T22:37:04.172Z,4.30
2018-06-19T22:39:32.663Z,5.27
2018-06-19T22:42:01.233Z,5.00
2018-06-19T22:44:29.940Z,3.00
2018-06-19T22:46:58.822Z,4.03
2018-06-19T22:49:27.353Z,3.30
2018-06-19T22:51:55.813Z,3.47
2018-06-19T22:54:24.050Z,5.43
2018-06-19T22:56:52.536Z,5.20
2018-06-19T22:59:21.101Z,2.80
2018-06-19T23:01:49.537Z,3.30
2018-06-19T23:04:18.090Z,4.70
2018-06-19T23:06:46.631Z,5.50
2018-06-19T23:09:15.259Z,3.17
2018-06-19T23:11:44.606Z,3.40
2018-06-19T23:14:13.278Z,2.93
2018-06-19T23:16:41.939Z,2.63
2018-06-19T23:19:10.237Z,2.93
2018-06-19T23:21:38.683Z,4.03
2018-06-19T23:24:07.244Z,4.60
2018-06-19T23:26:35.715Z,4.53
2018-06-19T23:29:04.196Z,2.93
2018-06-19T23:31:32.774Z,5.10
2018-06-19T23:34:01.324Z,4.23
2018-06-19T23:36:29.812Z,5.33
2018-06-19T23:38:58.244Z,5.13
2018-06-19T23:41:26.829Z,5.73
2018-06-19T23:43:55.478Z,11.00
2018-06-19T23:46:23.924Z,3.10
2018-06-19T23:48:52.444Z,10.47
2018-06-19T23:51:20.975Z,3.20
2018-06-19T23:53:49.514Z,7.00
2018-06-19T23:56:17.996Z,8.83
2018-06-19T23:58:46.536Z,5.30
